createdAt,value
2023-02-06T00:01:38.388Z,3.60
2023-02-06T00:04:05.492Z,4.13
2023-02-06T00:06:33.050Z,2.33
2023-02-06T00:09:00.242Z,2.70
2023-02-06T00:11:27.787Z,4.73
2023-02-06T00:13:55.011Z,3.33
2023-02-06T00:16:31.325Z,4.70
2023-02-06T00:19:02.029Z,4.57
2023-02-06T00:21:30.004Z,2.47
2023-02-06T00:24:00.340Z,3.93
2023-02-06T00:26:27.475Z,4.93
2023-02-06T00:28:54.892Z,4.90
2023-02-06T00:31:22.224Z,4.87
2023-02-06T00:33:49.543Z,4.83
2023-02-06T00:36:16.742Z,2.40
2023-02-06T00:38:43.908Z,4.27
2023-02-06T00:41:11.094Z,5.43
2023-02-06T00:43:38.221Z,3.90
2023-02-06T00:46:05.522Z,3.20
2023-02-06T00:48:32.669Z,4.77
2023-02-06T00:50:59.759Z,5.03
2023-02-06T00:53:26.936Z,3.10
2023-02-06T00:55:53.978Z,1.67
2023-02-06T00:58:22.084Z,3.67
2023-02-06T01:00:49.164Z,3.73
2023-02-06T01:03:17.351Z,4.23
2023-02-06T01:05:44.510Z,3.63
2023-02-06T01:08:11.691Z,4.87
2023-02-06T01:10:42.625Z,3.53
2023-02-06T01:15:37.825Z,1.27
2023-02-06T01:18:05.319Z,4.77
2023-02-06T01:20:32.613Z,5.33
2023-02-06T01:22:59.677Z,5.10
2023-02-06T01:25:26.920Z,4.90
2023-02-06T01:27:54.118Z,2.67
2023-02-06T01:30:21.326Z,3.10
2023-02-06T01:32:49.690Z,6.07
2023-02-06T01:35:17.814Z,5.13
2023-02-06T01:37:44.917Z,5.30
2023-02-06T01:40:15.382Z,2.40
2023-02-06T01:42:42.769Z,3.05
2023-02-06T01:45:21.744Z,1.37
2023-02-06T01:48:03.522Z,2.17
2023-02-06T01:50:33.497Z,0.90
2023-02-06T01:53:02.212Z,2.67
2023-02-06T01:55:29.586Z,3.07
2023-02-06T01:58:01.298Z,1.17
2023-02-06T02:00:28.570Z,1.40
2023-02-06T02:02:55.721Z,1.30
2023-02-06T02:05:23.226Z,2.47
2023-02-06T02:08:02.806Z,3.33
2023-02-06T02:10:30.993Z,1.80
2023-02-06T02:12:58.723Z,3.13
2023-02-06T02:16:02.881Z,3.63
2023-02-06T02:18:33.682Z,4.43
2023-02-06T02:21:51.487Z,0.93
2023-02-06T02:24:44.587Z,2.73
2023-02-06T02:27:39.297Z,3.23
2023-02-06T02:30:07.660Z,3.13
2023-02-06T02:33:10.102Z,4.20
2023-02-06T02:35:46.687Z,1.00
2023-02-06T02:38:39.976Z,1.97
2023-02-06T02:41:25.575Z,2.20
2023-02-06T02:44:02.298Z,2.30
2023-02-06T02:46:35.246Z,1.23
2023-02-06T02:49:08.735Z,0.60
2023-02-06T02:51:39.125Z,1.73
2023-02-06T02:54:06.464Z,3.33
2023-02-06T02:56:34.194Z,2.17
2023-02-06T02:59:19.319Z,3.43
2023-02-06T03:02:03.574Z,0.97
2023-02-06T03:04:38.187Z,2.53
2023-02-06T03:07:30.288Z,2.63
2023-02-06T03:10:13.675Z,2.37
2023-02-06T03:12:55.829Z,3.17
2023-02-06T03:15:22.880Z,1.37
2023-02-06T03:18:14.504Z,2.37
2023-02-06T03:20:44.647Z,1.57
2023-02-06T03:23:23.338Z,0.85
2023-02-06T03:25:54.876Z,2.07
2023-02-06T03:28:31.028Z,2.80
2023-02-06T03:31:02.330Z,2.00
2023-02-06T03:33:36.397Z,3.17
2023-02-06T03:36:05.468Z,0.73
2023-02-06T03:38:33.413Z,1.07
2023-02-06T03:41:01.834Z,1.73
2023-02-06T03:43:30.553Z,1.57
2023-02-06T03:46:02.531Z,3.00
2023-02-06T03:48:40.965Z,0.83
2023-02-06T03:51:18.050Z,2.57
2023-02-06T03:53:48.148Z,0.90
2023-02-06T03:56:31.674Z,1.80
2023-02-06T03:58:59.100Z,2.77
2023-02-06T04:01:26.569Z,2.60
2023-02-06T04:03:54.044Z,1.80
2023-02-06T04:06:21.137Z,1.93
2023-02-06T04:08:48.376Z,2.10
2023-02-06T04:11:15.526Z,2.33
2023-02-06T04:13:42.717Z,3.60
2023-02-06T04:16:09.878Z,2.43
2023-02-06T04:18:36.932Z,3.73
2023-02-06T04:21:06.089Z,2.60
2023-02-06T04:23:33.618Z,0.63
2023-02-06T04:26:00.838Z,2.80
2023-02-06T04:28:27.982Z,1.90
2023-02-06T04:30:55.258Z,2.03
2023-02-06T04:33:22.426Z,2.60
2023-02-06T04:35:49.598Z,1.47
2023-02-06T04:38:17.232Z,3.13
2023-02-06T04:40:44.502Z,2.33
2023-02-06T04:43:11.778Z,2.60
2023-02-06T04:45:39.040Z,4.80
2023-02-06T04:48:06.322Z,3.40
2023-02-06T04:50:34.525Z,2.33
2023-02-06T04:53:01.722Z,2.50
2023-02-06T04:55:29.160Z,1.67
2023-02-06T04:57:56.208Z,3.80
2023-02-06T05:00:23.367Z,3.47
2023-02-06T05:02:50.455Z,2.00
2023-02-06T05:05:17.633Z,2.40
2023-02-06T05:07:44.778Z,3.43
2023-02-06T05:10:11.920Z,3.27
2023-02-06T05:12:40.226Z,0.70
2023-02-06T05:15:08.024Z,2.73
2023-02-06T05:17:35.165Z,2.63
2023-02-06T05:20:02.664Z,1.30
2023-02-06T05:22:30.158Z,1.00
2023-02-06T05:24:57.370Z,3.43
2023-02-06T05:27:25.717Z,0.37
2023-02-06T05:29:52.917Z,2.67
2023-02-06T05:32:20.078Z,1.27
2023-02-06T05:34:47.172Z,2.63
2023-02-06T05:37:14.200Z,2.57
2023-02-06T05:39:41.266Z,3.20
2023-02-06T05:42:08.314Z,3.37
2023-02-06T05:44:35.399Z,3.20
2023-02-06T05:47:02.469Z,3.03
2023-02-06T05:49:29.521Z,3.30
2023-02-06T05:51:58.080Z,4.10
2023-02-06T05:54:25.220Z,3.60
2023-02-06T05:56:52.332Z,3.83
2023-02-06T05:59:19.432Z,2.80
2023-02-06T06:01:46.465Z,1.07
2023-02-06T06:04:14.335Z,1.67
2023-02-06T06:06:42.051Z,1.73
2023-02-06T06:09:09.093Z,2.87
2023-02-06T06:11:36.162Z,1.23
2023-02-06T06:14:03.478Z,1.00
2023-02-06T06:16:32.140Z,4.07
2023-02-06T06:18:59.360Z,1.50
2023-02-06T06:21:26.424Z,3.37
2023-02-06T06:23:53.651Z,3.87
2023-02-06T06:26:20.711Z,3.60
2023-02-06T06:28:48.841Z,3.80
2023-02-06T06:31:16.043Z,2.43
2023-02-06T06:33:43.466Z,1.13
2023-02-06T06:36:14.237Z,2.47
2023-02-06T06:41:08.682Z,4.40
2023-02-06T06:43:35.841Z,2.57
2023-02-06T06:46:04.943Z,4.23
2023-02-06T06:48:32.693Z,3.17
2023-02-06T06:50:59.878Z,3.57
2023-02-06T06:53:26.927Z,2.50
2023-02-06T06:55:54.004Z,3.40
2023-02-06T06:58:21.243Z,4.03
2023-02-06T07:00:48.326Z,2.80
2023-02-06T07:03:15.436Z,1.90
2023-02-06T07:05:42.636Z,3.27
2023-02-06T07:08:09.797Z,2.83
2023-02-06T07:10:36.921Z,3.50
2023-02-06T07:13:04.195Z,3.20
2023-02-06T07:15:31.751Z,3.50
2023-02-06T07:17:58.769Z,3.67
2023-02-06T07:20:25.894Z,3.70
2023-02-06T07:22:53.738Z,3.33
2023-02-06T07:25:21.625Z,2.30
2023-02-06T07:27:48.789Z,3.90
2023-02-06T07:30:16.069Z,1.90
2023-02-06T07:32:43.183Z,0.93
2023-02-06T07:35:10.344Z,3.40
2023-02-06T07:37:37.418Z,3.50
2023-02-06T07:40:05.807Z,0.93
2023-02-06T07:42:33.864Z,1.17
2023-02-06T07:45:09.577Z,1.83
2023-02-06T07:47:36.798Z,2.23
2023-02-06T07:50:04.605Z,3.70
2023-02-06T07:52:31.866Z,4.50
2023-02-06T07:54:58.949Z,2.27
2023-02-06T07:57:26.084Z,3.47
2023-02-06T07:59:53.214Z,3.37
2023-02-06T08:02:20.362Z,3.30
2023-02-06T08:04:47.487Z,2.77
2023-02-06T08:07:17.588Z,3.50
2023-02-06T08:09:44.708Z,3.40
2023-02-06T08:12:12.112Z,4.80
2023-02-06T08:14:39.304Z,3.57
2023-02-06T08:17:07.792Z,4.10
2023-02-06T08:19:34.862Z,4.27
2023-02-06T08:22:01.902Z,4.07
2023-02-06T08:24:29.001Z,4.80
2023-02-06T08:26:56.151Z,4.00
2023-02-06T08:29:24.738Z,3.60
2023-02-06T08:31:51.918Z,3.67
2023-02-06T08:34:19.173Z,4.30
2023-02-06T08:36:46.405Z,3.80
2023-02-06T08:39:15.006Z,4.30
2023-02-06T08:41:43.538Z,5.40
2023-02-06T08:44:16.340Z,4.03
2023-02-06T08:46:45.067Z,4.50
2023-02-06T08:49:14.925Z,4.07
2023-02-06T08:51:42.676Z,3.40
2023-02-06T08:54:13.647Z,4.40
2023-02-06T08:59:08.263Z,4.80
2023-02-06T09:01:37.081Z,5.13
2023-02-06T09:04:09.902Z,2.57
2023-02-06T09:06:40.122Z,3.57
2023-02-06T09:09:09.114Z,3.00
2023-02-06T09:11:36.674Z,1.83
2023-02-06T09:14:06.065Z,4.70
2023-02-06T09:16:33.760Z,5.50
2023-02-06T09:19:01.941Z,2.20
2023-02-06T09:21:31.109Z,4.50
2023-02-06T09:24:01.372Z,3.77
2023-02-06T09:26:32.102Z,4.32
2023-02-06T09:29:01.251Z,2.17
2023-02-06T09:31:32.724Z,2.77
2023-02-06T09:34:03.116Z,5.87
2023-02-06T09:36:30.888Z,5.20
2023-02-06T09:38:58.405Z,4.77
2023-02-06T09:41:42.059Z,6.07
2023-02-06T09:44:30.726Z,4.87
2023-02-06T09:47:01.384Z,3.93
2023-02-06T09:49:30.687Z,4.75
2023-02-06T09:52:11.598Z,5.13
2023-02-06T09:54:50.701Z,4.13
2023-02-06T09:57:21.821Z,5.80
2023-02-06T09:59:56.454Z,5.00
2023-02-06T10:03:02.547Z,1.70
2023-02-06T10:05:44.584Z,5.23
2023-02-06T10:08:22.437Z,5.00
2023-02-06T10:10:58.597Z,5.43
2023-02-06T10:13:35.966Z,1.33
2023-02-06T10:16:21.634Z,4.63
2023-02-06T10:18:55.278Z,6.27
2023-02-06T10:21:48.617Z,5.10
2023-02-06T10:24:23.005Z,5.40
2023-02-06T10:26:52.214Z,5.97
2023-02-06T10:29:27.733Z,5.03
2023-02-06T10:32:19.169Z,3.30
2023-02-06T10:35:07.806Z,1.67
2023-02-06T10:38:02.813Z,2.33
2023-02-06T10:40:43.642Z,4.57
2023-02-06T10:43:40.644Z,6.10
2023-02-06T10:46:26.797Z,2.80
2023-02-06T10:49:14.080Z,6.07
2023-02-06T10:51:45.531Z,5.33
2023-02-06T10:54:18.608Z,4.47
2023-02-06T10:56:47.924Z,5.17
2023-02-06T10:59:23.926Z,6.03
2023-02-06T11:02:00.796Z,6.10
2023-02-06T11:04:35.629Z,5.67
2023-02-06T11:07:09.023Z,6.27
2023-02-06T11:09:36.282Z,4.20
2023-02-06T11:12:04.321Z,4.90
2023-02-06T11:14:37.539Z,6.13
2023-02-06T11:17:04.898Z,5.60
2023-02-06T11:19:34.898Z,5.87
2023-02-06T11:22:04.778Z,5.30
2023-02-06T11:24:31.913Z,6.30
2023-02-06T11:27:11.868Z,5.97
2023-02-06T11:29:46.027Z,6.07
2023-02-06T11:33:03.707Z,6.43
2023-02-06T11:35:49.831Z,6.50
2023-02-06T11:38:19.928Z,6.33
2023-02-06T11:40:54.824Z,6.28
2023-02-06T11:43:25.097Z,5.87
2023-02-06T11:46:29.220Z,6.57
2023-02-06T11:48:56.271Z,6.23
2023-02-06T11:51:24.581Z,6.27
2023-02-06T11:54:35.541Z,6.70
2023-02-06T11:57:19.157Z,2.20
2023-02-06T12:00:01.992Z,6.53
2023-02-06T12:02:33.290Z,6.00
2023-02-06T12:05:16.712Z,6.10
2023-02-06T12:07:47.292Z,6.40
2023-02-06T12:10:17.227Z,6.80
2023-02-06T12:12:56.689Z,6.77
2023-02-06T12:15:46.588Z,6.63
2023-02-06T12:18:32.335Z,6.68
2023-02-06T12:21:05.379Z,6.20
2023-02-06T12:23:43.746Z,7.10
2023-02-06T12:26:18.046Z,6.60
2023-02-06T12:28:54.972Z,5.83
2023-02-06T12:31:25.076Z,7.23
2023-02-06T12:34:04.418Z,6.68
2023-02-06T12:36:37.936Z,7.07
2023-02-06T12:39:17.475Z,7.67
2023-02-06T12:42:22.021Z,6.93
2023-02-06T12:45:01.305Z,6.30
2023-02-06T12:47:33.654Z,6.93
2023-02-06T12:50:00.624Z,6.77
2023-02-06T12:52:43.133Z,7.03
2023-02-06T12:55:25.345Z,8.93
2023-02-06T12:57:53.798Z,7.73
2023-02-06T13:00:49.687Z,9.00
2023-02-06T13:03:41.187Z,7.90
2023-02-06T13:06:21.848Z,8.57
2023-02-06T13:08:58.705Z,8.13
2023-02-06T13:11:35.212Z,7.60
2023-02-06T13:14:04.558Z,8.03
2023-02-06T13:17:10.270Z,9.07
2023-02-06T13:19:37.389Z,7.70
2023-02-06T13:22:10.548Z,8.20
2023-02-06T13:24:39.127Z,8.13
2023-02-06T13:27:09.184Z,8.90
2023-02-06T13:29:40.010Z,9.00
2023-02-06T13:32:15.749Z,8.23
2023-02-06T13:34:44.524Z,8.30
2023-02-06T13:37:30.411Z,9.17
2023-02-06T13:40:26.672Z,12.83
2023-02-06T13:43:10.359Z,8.53
2023-02-06T13:45:58.382Z,9.30
2023-02-06T13:48:48.552Z,12.57
2023-02-06T13:51:43.289Z,8.38
2023-02-06T13:54:37.964Z,9.97
2023-02-06T13:57:15.786Z,8.87
2023-02-06T13:59:46.594Z,8.50
2023-02-06T14:02:22.440Z,8.07
2023-02-06T14:04:51.081Z,9.13
2023-02-06T14:07:36.671Z,11.77
2023-02-06T14:10:28.007Z,9.60
2023-02-06T14:13:24.382Z,9.10
2023-02-06T14:16:21.040Z,8.37
2023-02-06T14:19:25.594Z,9.47
2023-02-06T14:22:01.420Z,9.30
2023-02-06T14:24:43.554Z,8.67
2023-02-06T14:27:38.069Z,9.33
2023-02-06T14:30:05.123Z,10.20
2023-02-06T14:33:06.023Z,9.37
2023-02-06T14:35:56.362Z,10.23
2023-02-06T14:39:02.765Z,10.77
2023-02-06T14:41:32.457Z,11.13
2023-02-06T14:44:00.002Z,10.67
2023-02-06T14:46:28.364Z,10.50
2023-02-06T14:48:58.431Z,10.97
2023-02-06T14:51:34.199Z,9.37
2023-02-06T14:54:05.006Z,9.70
2023-02-06T14:56:33.502Z,8.95
2023-02-06T14:59:12.777Z,10.03
2023-02-06T15:01:41.946Z,8.00
2023-02-06T15:04:15.748Z,10.93
2023-02-06T15:07:04.193Z,9.20
2023-02-06T15:09:44.198Z,11.70
2023-02-06T15:12:20.810Z,9.80
2023-02-06T15:14:53.842Z,8.93
2023-02-06T15:17:23.028Z,8.20
2023-02-06T15:19:50.136Z,10.40
2023-02-06T15:22:26.956Z,9.47
2023-02-06T15:25:08.378Z,9.67
2023-02-06T15:27:37.526Z,10.60
2023-02-06T15:30:24.022Z,8.93
2023-02-06T15:32:53.243Z,8.40
2023-02-06T15:35:28.892Z,9.10
2023-02-06T15:37:56.932Z,9.50
2023-02-06T15:40:32.801Z,11.23
2023-02-06T15:43:01.887Z,9.40
2023-02-06T15:45:34.615Z,9.53
2023-02-06T15:48:18.037Z,8.63
2023-02-06T15:51:21.421Z,10.37
2023-02-06T15:53:50.769Z,11.17
2023-02-06T15:56:26.323Z,7.80
2023-02-06T15:59:00.022Z,7.67
2023-02-06T16:01:31.567Z,8.50
2023-02-06T16:04:06.301Z,7.73
2023-02-06T16:06:33.674Z,8.50
2023-02-06T16:09:03.237Z,8.40
2023-02-06T16:11:52.258Z,7.77
2023-02-06T16:14:28.015Z,8.43
2023-02-06T16:16:58.142Z,8.43
2023-02-06T16:19:50.279Z,8.27
2023-02-06T16:22:21.794Z,6.83
2023-02-06T16:24:50.246Z,7.57
2023-02-06T16:27:22.951Z,7.07
2023-02-06T16:29:53.388Z,8.90
2023-02-06T16:32:31.913Z,9.25
2023-02-06T16:35:01.369Z,8.00
2023-02-06T16:37:30.700Z,7.90
2023-02-06T16:39:58.861Z,8.07
2023-02-06T16:42:32.732Z,8.60
2023-02-06T16:45:01.792Z,9.07
2023-02-06T16:47:30.220Z,10.88
2023-02-06T16:49:57.335Z,9.43
2023-02-06T16:52:30.578Z,9.33
2023-02-06T16:54:59.186Z,11.33
2023-02-06T16:57:35.246Z,9.37
2023-02-06T17:00:09.730Z,11.07
2023-02-06T17:02:36.919Z,11.00
2023-02-06T17:05:05.153Z,9.47
2023-02-06T17:07:35.082Z,9.50
2023-02-06T17:10:02.981Z,10.20
2023-02-06T17:12:31.641Z,8.60
2023-02-06T17:14:58.732Z,10.93
2023-02-06T17:17:25.982Z,9.53
2023-02-06T17:19:53.277Z,10.37
2023-02-06T17:22:20.715Z,10.67
2023-02-06T17:24:48.004Z,9.83
2023-02-06T17:27:21.152Z,9.00
2023-02-06T17:29:49.670Z,9.93
2023-02-06T17:32:21.773Z,8.93
2023-02-06T17:34:54.409Z,9.47
2023-02-06T17:37:21.656Z,8.73
2023-02-06T17:39:50.682Z,9.40
2023-02-06T17:42:17.846Z,9.67
2023-02-06T17:44:45.082Z,10.20
2023-02-06T17:47:12.157Z,10.23
2023-02-06T17:49:39.374Z,8.67
2023-02-06T17:52:06.474Z,9.20
2023-02-06T17:54:34.012Z,9.83
2023-02-06T17:57:01.096Z,9.07
2023-02-06T17:59:28.246Z,9.03
2023-02-06T18:01:55.489Z,9.03
2023-02-06T18:04:23.152Z,10.07
2023-02-06T18:06:50.276Z,10.90
2023-02-06T18:09:17.462Z,10.43
2023-02-06T18:11:44.727Z,10.33
2023-02-06T18:14:12.020Z,8.57
2023-02-06T18:16:42.902Z,8.50
2023-02-06T18:19:10.688Z,9.27
2023-02-06T18:21:37.735Z,8.03
2023-02-06T18:24:05.501Z,8.10
2023-02-06T18:26:33.102Z,8.73
2023-02-06T18:29:04.556Z,8.60
2023-02-06T18:31:33.579Z,8.10
2023-02-06T18:34:04.646Z,8.23
2023-02-06T18:38:58.661Z,6.60
2023-02-06T18:41:44.004Z,7.57
2023-02-06T18:44:12.350Z,7.90
2023-02-06T18:46:39.778Z,7.47
2023-02-06T18:49:07.333Z,7.33
2023-02-06T18:51:34.795Z,7.60
2023-02-06T18:54:02.551Z,7.17
2023-02-06T18:56:30.756Z,7.70
2023-02-06T18:58:58.014Z,7.83
2023-02-06T19:01:25.964Z,7.53
2023-02-06T19:03:54.300Z,7.50
2023-02-06T19:06:24.596Z,7.90
2023-02-06T19:08:51.822Z,9.60
2023-02-06T19:11:19.120Z,8.57
2023-02-06T19:13:46.251Z,8.03
2023-02-06T19:16:15.996Z,8.43
2023-02-06T19:18:45.944Z,8.73
2023-02-06T19:21:18.831Z,9.00
2023-02-06T19:23:47.979Z,8.57
2023-02-06T19:26:17.170Z,8.13
2023-02-06T19:28:44.989Z,8.40
2023-02-06T19:31:13.279Z,8.77
2023-02-06T19:33:41.783Z,8.63
2023-02-06T19:36:13.104Z,7.70
2023-02-06T19:38:40.749Z,8.07
2023-02-06T19:41:09.910Z,7.97
2023-02-06T19:43:37.491Z,8.23
2023-02-06T19:46:06.232Z,9.87
2023-02-06T19:48:33.958Z,9.63
2023-02-06T19:51:09.775Z,9.80
2023-02-06T19:53:37.408Z,8.83
2023-02-06T19:56:05.107Z,9.10
2023-02-06T19:58:33.046Z,9.97
2023-02-06T20:01:12.298Z,9.77
2023-02-06T20:03:39.558Z,9.50
2023-02-06T20:06:10.605Z,10.33
2023-02-06T20:11:12.213Z,8.63
2023-02-06T20:13:40.186Z,9.03
2023-02-06T20:16:15.062Z,8.70
2023-02-06T20:18:42.278Z,8.27
2023-02-06T20:21:21.416Z,10.43
2023-02-06T20:23:52.614Z,8.70
2023-02-06T20:26:21.713Z,9.00
2023-02-06T20:28:49.011Z,8.83
2023-02-06T20:31:17.416Z,10.20
2023-02-06T20:33:45.683Z,9.20
2023-02-06T20:36:20.271Z,9.20
2023-02-06T20:38:49.494Z,8.83
2023-02-06T20:41:17.394Z,8.97
2023-02-06T20:43:47.903Z,8.50
2023-02-06T20:46:18.322Z,7.35
2023-02-06T20:48:47.383Z,9.18
2023-02-06T20:51:14.863Z,9.07
2023-02-06T20:53:41.977Z,7.17
2023-02-06T20:56:11.964Z,8.60
2023-02-06T20:58:39.393Z,8.13
2023-02-06T21:01:18.688Z,9.00
2023-02-06T21:03:46.967Z,8.20
2023-02-06T21:06:14.797Z,7.70
2023-02-06T21:08:42.724Z,8.90
2023-02-06T21:11:09.889Z,8.03
2023-02-06T21:13:40.871Z,7.63
2023-02-06T21:16:09.281Z,8.03
2023-02-06T21:18:37.049Z,8.57
2023-02-06T21:21:11.937Z,8.57
2023-02-06T21:23:40.686Z,9.20
2023-02-06T21:26:09.971Z,10.03
2023-02-06T21:28:38.383Z,8.23
2023-02-06T21:31:08.916Z,7.93
2023-02-06T21:33:37.202Z,8.40
2023-02-06T21:36:07.100Z,8.87
2023-02-06T21:38:35.899Z,8.87
2023-02-06T21:41:12.828Z,8.13
2023-02-06T21:43:40.229Z,8.63
2023-02-06T21:46:07.705Z,6.80
2023-02-06T21:48:35.382Z,8.13
2023-02-06T21:51:21.754Z,9.00
2023-02-06T21:53:49.588Z,8.77
2023-02-06T21:56:22.816Z,7.23
2023-02-06T21:58:51.058Z,8.80
2023-02-06T22:01:23.805Z,9.20
2023-02-06T22:03:51.131Z,8.10
2023-02-06T22:06:20.195Z,9.57
2023-02-06T22:08:51.951Z,8.57
2023-02-06T22:11:27.348Z,8.37
2023-02-06T22:13:59.398Z,8.40
2023-02-06T22:16:27.559Z,7.40
2023-02-06T22:18:56.317Z,9.23
2023-02-06T22:21:26.324Z,8.67
2023-02-06T22:23:57.919Z,8.73
2023-02-06T22:26:26.502Z,8.17
2023-02-06T22:28:54.107Z,9.17
2023-02-06T22:31:24.532Z,9.87
2023-02-06T22:33:51.927Z,9.10
2023-02-06T22:36:23.175Z,9.20
2023-02-06T22:38:57.904Z,9.95
2023-02-06T22:41:25.047Z,9.33
2023-02-06T22:43:52.586Z,9.57
2023-02-06T22:46:31.310Z,8.30
2023-02-06T22:48:58.763Z,8.57
2023-02-06T22:51:26.211Z,8.50
2023-02-06T22:53:53.654Z,8.10
2023-02-06T22:56:35.034Z,6.77
2023-02-06T22:59:17.400Z,8.10
2023-02-06T23:01:48.996Z,7.20
2023-02-06T23:04:27.765Z,6.37
2023-02-06T23:06:55.216Z,7.77
2023-02-06T23:09:24.947Z,7.47
2023-02-06T23:11:52.718Z,6.97
2023-02-06T23:14:20.167Z,6.93
2023-02-06T23:16:48.064Z,6.70
2023-02-06T23:19:16.293Z,6.50
2023-02-06T23:21:45.129Z,6.50
2023-02-06T23:24:13.213Z,7.27
2023-02-06T23:26:45.698Z,6.60
2023-02-06T23:29:15.975Z,7.17
2023-02-06T23:31:47.070Z,6.07
2023-02-06T23:34:14.868Z,6.77
2023-02-06T23:36:42.398Z,6.50
2023-02-06T23:39:09.459Z,6.87
2023-02-06T23:41:36.523Z,5.80
2023-02-06T23:44:07.043Z,6.60
2023-02-06T23:46:36.365Z,6.32
2023-02-06T23:49:03.972Z,6.63
2023-02-06T23:51:32.066Z,6.80
2023-02-06T23:53:59.518Z,8.57
2023-02-06T23:56:28.760Z,5.53
2023-02-06T23:58:57.161Z,7.23
